createdAt,value
2022-12-18T00:01:16.125Z,-4.95
2022-12-18T00:03:43.009Z,-5.06
2022-12-18T00:06:10.209Z,-7.89
2022-12-18T00:08:36.954Z,-8.64
2022-12-18T00:11:08.749Z,-8.99
2022-12-18T00:13:36.442Z,-8.23
2022-12-18T00:16:05.387Z,-7.71
2022-12-18T00:18:32.351Z,-8.66
2022-12-18T00:21:01.703Z,-7.83
2022-12-18T00:23:29.092Z,-8.10
2022-12-18T00:25:55.698Z,-8.66
2022-12-18T00:28:22.107Z,-7.71
2022-12-18T00:30:52.248Z,-6.41
2022-12-18T00:33:18.988Z,-6.27
2022-12-18T00:35:45.426Z,-6.44
2022-12-18T00:38:11.827Z,-5.81
2022-12-18T00:40:38.311Z,-5.67
2022-12-18T00:43:04.738Z,-5.58
2022-12-18T00:45:31.983Z,-5.42
2022-12-18T00:47:58.558Z,-5.41
2022-12-18T00:50:25.960Z,-5.32
2022-12-18T00:52:52.815Z,-5.32
2022-12-18T00:55:19.640Z,-6.02
2022-12-18T00:57:47.102Z,-5.55
2022-12-18T01:00:15.837Z,-5.50
2022-12-18T01:02:43.462Z,-6.83
2022-12-18T01:05:12.022Z,-8.56
2022-12-18T01:07:38.591Z,-7.96
2022-12-18T01:10:06.289Z,-6.71
2022-12-18T01:12:35.751Z,-6.06
2022-12-18T01:15:02.417Z,-5.62
2022-12-18T01:17:28.944Z,-5.72
2022-12-18T01:19:55.396Z,-5.56
2022-12-18T01:22:21.804Z,-5.49
2022-12-18T01:24:48.248Z,-5.55
2022-12-18T01:27:14.706Z,-5.71
2022-12-18T01:29:41.165Z,-5.75
2022-12-18T01:32:09.425Z,-5.67
2022-12-18T01:34:39.063Z,-5.56
2022-12-18T01:37:06.167Z,-5.68
2022-12-18T01:39:33.179Z,-5.61
2022-12-18T01:42:03.841Z,-5.53
2022-12-18T01:44:58.034Z,-5.61
2022-12-18T01:47:29.477Z,-5.80
2022-12-18T01:49:58.077Z,-6.46
2022-12-18T01:52:27.054Z,-6.26
2022-12-18T01:54:54.114Z,-6.29
2022-12-18T01:57:21.431Z,-6.24
2022-12-18T01:59:53.536Z,-6.04
2022-12-18T02:02:22.006Z,-5.88
2022-12-18T02:04:49.703Z,-5.76
2022-12-18T02:07:36.561Z,-6.25
2022-12-18T02:10:27.553Z,-6.98
2022-12-18T02:13:12.402Z,-6.13
2022-12-18T02:15:50.129Z,-7.89
2022-12-18T02:18:28.180Z,-9.17
2022-12-18T02:24:16.981Z,-9.56
2022-12-18T02:27:06.316Z,-10.11
2022-12-18T02:29:38.498Z,-10.63
2022-12-18T02:32:10.218Z,-9.31
2022-12-18T02:34:39.534Z,-9.46
2022-12-18T02:37:13.891Z,-8.09
2022-12-18T02:39:44.316Z,-6.79
2022-12-18T02:42:14.300Z,-6.53
2022-12-18T02:44:50.360Z,-6.51
2022-12-18T02:47:23.977Z,-7.36
2022-12-18T02:50:20.367Z,-6.49
2022-12-18T02:52:55.123Z,-6.20
2022-12-18T02:55:46.506Z,-6.19
2022-12-18T02:58:21.897Z,-6.30
2022-12-18T03:01:07.097Z,-6.28
2022-12-18T03:03:53.832Z,-6.36
2022-12-18T03:06:32.870Z,-6.36
2022-12-18T03:09:06.900Z,-6.34
2022-12-18T03:11:56.501Z,-6.44
2022-12-18T03:14:25.068Z,-6.46
2022-12-18T03:16:55.651Z,-6.53
2022-12-18T03:19:26.908Z,-6.72
2022-12-18T03:21:59.596Z,-6.71
2022-12-18T03:24:28.794Z,-6.68
2022-12-18T03:27:00.992Z,-6.57
2022-12-18T03:29:36.821Z,-6.57
2022-12-18T03:32:13.174Z,-6.53
2022-12-18T03:34:43.225Z,-6.44
2022-12-18T03:37:13.011Z,-6.49
2022-12-18T03:39:41.794Z,-7.39
2022-12-18T03:42:26.731Z,-8.27
2022-12-18T03:45:13.380Z,-9.35
2022-12-18T03:48:15.316Z,-8.96
2022-12-18T03:50:54.917Z,-10.04
2022-12-18T03:53:39.243Z,-8.76
2022-12-18T03:56:07.500Z,-7.75
2022-12-18T03:58:41.041Z,-7.20
2022-12-18T04:01:18.999Z,-6.89
2022-12-18T04:03:50.184Z,-6.82
2022-12-18T04:06:19.324Z,-6.81
2022-12-18T04:08:47.560Z,-7.13
2022-12-18T04:11:17.592Z,-6.84
2022-12-18T04:13:46.373Z,-6.73
2022-12-18T04:16:20.791Z,-6.82
2022-12-18T04:18:51.492Z,-6.70
2022-12-18T04:21:20.313Z,-6.90
2022-12-18T04:23:48.141Z,-6.85
2022-12-18T04:26:14.757Z,-6.71
2022-12-18T04:28:57.416Z,-6.64
2022-12-18T04:31:24.095Z,-6.97
2022-12-18T04:33:50.631Z,-6.78
2022-12-18T04:36:17.557Z,-6.73
2022-12-18T04:38:45.452Z,-6.72
2022-12-18T04:41:15.364Z,-7.85
2022-12-18T04:43:43.929Z,-7.28
2022-12-18T04:46:10.593Z,-7.08
2022-12-18T04:48:37.438Z,-6.97
2022-12-18T04:51:05.142Z,-7.01
2022-12-18T04:53:31.642Z,-6.90
2022-12-18T04:56:05.973Z,-6.78
2022-12-18T04:58:32.593Z,-6.86
2022-12-18T05:00:59.125Z,-7.19
2022-12-18T05:03:25.593Z,-7.33
2022-12-18T05:05:52.765Z,-8.40
2022-12-18T05:08:19.710Z,-7.44
2022-12-18T05:10:46.583Z,-7.17
2022-12-18T05:13:13.079Z,-7.62
2022-12-18T05:15:39.647Z,-8.75
2022-12-18T05:18:06.160Z,-8.58
2022-12-18T05:20:32.850Z,-8.79
2022-12-18T05:22:59.351Z,-7.65
2022-12-18T05:25:26.006Z,-7.30
2022-12-18T05:27:52.450Z,-7.36
2022-12-18T05:30:18.943Z,-7.30
2022-12-18T05:32:45.393Z,-7.13
2022-12-18T05:35:12.330Z,-7.22
2022-12-18T05:37:42.956Z,-7.00
2022-12-18T05:40:10.784Z,-7.03
2022-12-18T05:42:37.492Z,-6.96
2022-12-18T05:45:05.063Z,-7.10
2022-12-18T05:47:31.518Z,-7.39
2022-12-18T05:49:58.067Z,-7.41
2022-12-18T05:52:24.777Z,-7.28
2022-12-18T05:54:51.209Z,-7.42
2022-12-18T05:57:17.712Z,-7.19
2022-12-18T05:59:44.432Z,-7.18
2022-12-18T06:02:10.960Z,-7.42
2022-12-18T06:04:37.549Z,-7.32
2022-12-18T06:07:03.983Z,-7.36
2022-12-18T06:09:30.724Z,-7.90
2022-12-18T06:11:57.171Z,-8.92
2022-12-18T06:14:23.640Z,-8.32
2022-12-18T06:16:52.837Z,-9.49
2022-12-18T06:19:19.290Z,-11.05
2022-12-18T06:21:46.475Z,-9.88
2022-12-18T06:24:12.954Z,-9.81
2022-12-18T06:26:39.959Z,-9.04
2022-12-18T06:29:06.534Z,-8.00
2022-12-18T06:31:33.440Z,-7.68
2022-12-18T06:34:03.178Z,-7.43
2022-12-18T06:36:30.278Z,-7.28
2022-12-18T06:38:57.447Z,-7.38
2022-12-18T06:41:24.255Z,-7.48
2022-12-18T06:43:50.799Z,-7.55
2022-12-18T06:46:17.307Z,-7.91
2022-12-18T06:48:43.858Z,-8.96
2022-12-18T06:51:10.308Z,-8.76
2022-12-18T06:53:36.980Z,-8.40
2022-12-18T06:56:09.886Z,-8.43
2022-12-18T06:58:37.923Z,-8.01
2022-12-18T07:01:07.014Z,-7.82
2022-12-18T07:03:33.550Z,-7.61
2022-12-18T07:06:00.176Z,-7.59
2022-12-18T07:08:27.030Z,-7.57
2022-12-18T07:10:56.455Z,-8.15
2022-12-18T07:13:23.465Z,-8.09
2022-12-18T07:15:49.991Z,-7.93
2022-12-18T07:18:16.484Z,-7.72
2022-12-18T07:20:42.928Z,-7.71
2022-12-18T07:23:09.432Z,-7.67
2022-12-18T07:25:36.597Z,-7.70
2022-12-18T07:28:03.930Z,-7.58
2022-12-18T07:30:30.576Z,-7.55
2022-12-18T07:32:57.022Z,-7.45
2022-12-18T07:35:25.171Z,-7.44
2022-12-18T07:37:52.355Z,-7.56
2022-12-18T07:40:18.845Z,-7.54
2022-12-18T07:42:45.275Z,-7.81
2022-12-18T07:45:11.883Z,-7.56
2022-12-18T07:47:38.462Z,-7.63
2022-12-18T07:50:06.256Z,-7.65
2022-12-18T07:52:32.723Z,-9.00
2022-12-18T07:54:59.776Z,-8.54
2022-12-18T08:00:13.280Z,-8.32
2022-12-18T08:02:39.918Z,-8.42
2022-12-18T08:05:06.658Z,-8.65
2022-12-18T08:07:33.645Z,-8.55
2022-12-18T08:10:00.146Z,-8.18
2022-12-18T08:12:26.611Z,-8.13
2022-12-18T08:14:53.243Z,-8.84
2022-12-18T08:17:20.936Z,-9.13
2022-12-18T08:19:47.399Z,-8.62
2022-12-18T08:22:13.871Z,-8.96
2022-12-18T08:24:40.300Z,-8.41
2022-12-18T08:27:28.476Z,-8.03
2022-12-18T08:29:53.163Z,-8.04
2022-12-18T08:32:19.742Z,-7.83
2022-12-18T08:34:46.259Z,-7.93
2022-12-18T08:37:12.761Z,-7.85
2022-12-18T08:39:39.210Z,-8.02
2022-12-18T08:42:24.333Z,-8.06
2022-12-18T08:44:50.783Z,-8.08
2022-12-18T08:47:17.232Z,-8.05
2022-12-18T08:49:43.682Z,-8.09
2022-12-18T08:52:10.153Z,-8.26
2022-12-18T08:54:36.614Z,-8.39
2022-12-18T08:57:03.138Z,-8.22
2022-12-18T08:59:29.735Z,-8.13
2022-12-18T09:01:56.476Z,-8.15
2022-12-18T09:04:23.618Z,-7.96
2022-12-18T09:06:50.213Z,-7.91
2022-12-18T09:09:16.693Z,-8.01
2022-12-18T09:11:43.180Z,-7.93
2022-12-18T09:14:10.850Z,-8.06
2022-12-18T09:16:37.552Z,-8.23
2022-12-18T09:19:05.752Z,-8.09
2022-12-18T09:21:37.084Z,-8.22
2022-12-18T09:24:05.236Z,-8.18
2022-12-18T09:26:36.032Z,-8.02
2022-12-18T09:29:03.856Z,-7.80
2022-12-18T09:31:30.279Z,-7.59
2022-12-18T09:33:57.675Z,-7.64
2022-12-18T09:36:24.305Z,-7.51
2022-12-18T09:38:51.429Z,-7.51
2022-12-18T09:41:57.868Z,-7.45
2022-12-18T09:44:28.038Z,-7.31
2022-12-18T09:47:02.215Z,-7.26
2022-12-18T09:49:31.941Z,-7.21
2022-12-18T09:52:10.200Z,-7.21
2022-12-18T09:54:40.879Z,-7.09
2022-12-18T09:57:07.382Z,-7.03
2022-12-18T09:59:40.617Z,-7.00
2022-12-18T10:02:22.655Z,-6.90
2022-12-18T10:05:15.167Z,-6.80
2022-12-18T10:08:16.846Z,-6.74
2022-12-18T10:10:53.196Z,-6.71
2022-12-18T10:13:31.646Z,-6.74
2022-12-18T10:16:04.036Z,-6.68
2022-12-18T10:18:45.432Z,-6.57
2022-12-18T10:21:17.747Z,-6.52
2022-12-18T10:24:03.864Z,-6.56
2022-12-18T10:26:33.680Z,-6.41
2022-12-18T10:29:05.322Z,-6.25
2022-12-18T10:31:32.176Z,-6.24
2022-12-18T10:33:58.653Z,-6.34
2022-12-18T10:36:26.250Z,-6.13
2022-12-18T10:38:52.795Z,-6.09
2022-12-18T10:41:19.983Z,-6.00
2022-12-18T10:43:49.051Z,-5.90
2022-12-18T10:46:20.642Z,-5.89
2022-12-18T10:48:55.961Z,-5.99
2022-12-18T10:51:31.542Z,-5.94
2022-12-18T10:54:04.673Z,-5.66
2022-12-18T10:56:35.814Z,-5.66
2022-12-18T10:59:08.316Z,-5.60
2022-12-18T11:01:50.597Z,-5.73
2022-12-18T11:04:21.691Z,-5.49
2022-12-18T11:07:03.822Z,-5.41
2022-12-18T11:09:38.889Z,-5.28
2022-12-18T11:12:17.676Z,-5.18
2022-12-18T11:14:48.902Z,-5.15
2022-12-18T11:17:27.119Z,-5.22
2022-12-18T11:19:55.127Z,-4.92
2022-12-18T11:22:27.433Z,-4.92
2022-12-18T11:25:30.677Z,-4.81
2022-12-18T11:27:51.965Z,-4.96
2022-12-18T11:30:35.660Z,-4.91
2022-12-18T11:33:17.258Z,-4.98
2022-12-18T11:35:54.662Z,-5.16
2022-12-18T11:38:35.447Z,-4.67
2022-12-18T11:41:22.968Z,-4.64
2022-12-18T11:43:55.118Z,-5.03
2022-12-18T11:46:33.322Z,-4.87
2022-12-18T11:49:29.181Z,-4.57
2022-12-18T11:52:20.575Z,-4.35
2022-12-18T11:54:54.260Z,-4.80
2022-12-18T11:57:50.255Z,-4.34
2022-12-18T12:00:19.814Z,-4.40
2022-12-18T12:03:14.196Z,-4.45
2022-12-18T12:05:59.783Z,-4.77
2022-12-18T12:08:59.357Z,-4.50
2022-12-18T12:11:50.217Z,-4.79
2022-12-18T12:14:25.929Z,-4.32
2022-12-18T12:16:59.740Z,-4.60
2022-12-18T12:19:44.710Z,-4.69
2022-12-18T12:22:40.665Z,-4.59
2022-12-18T12:25:29.812Z,-4.46
2022-12-18T12:28:08.460Z,-4.31
2022-12-18T12:31:03.847Z,-4.30
2022-12-18T12:33:48.567Z,-4.39
2022-12-18T12:36:32.034Z,-4.40
2022-12-18T12:39:02.468Z,-4.45
2022-12-18T12:41:53.098Z,-4.44
2022-12-18T12:44:35.306Z,-4.59
2022-12-18T12:47:16.454Z,-4.50
2022-12-18T12:49:48.471Z,-4.37
2022-12-18T12:52:25.673Z,-4.44
2022-12-18T12:54:52.760Z,-4.67
2022-12-18T12:57:35.365Z,-4.68
2022-12-18T13:00:13.800Z,-4.55
2022-12-18T13:03:05.714Z,-4.53
2022-12-18T13:05:41.405Z,-4.64
2022-12-18T13:08:11.088Z,-4.57
2022-12-18T13:10:40.340Z,-4.52
2022-12-18T13:13:13.318Z,-4.57
2022-12-18T13:15:43.998Z,-4.75
2022-12-18T13:18:16.126Z,-4.78
2022-12-18T13:21:03.776Z,-4.69
2022-12-18T13:23:42.402Z,-4.62
2022-12-18T13:26:09.265Z,-4.65
2022-12-18T13:28:47.922Z,-4.60
2022-12-18T13:31:49.541Z,-4.63
2022-12-18T13:34:27.664Z,-4.77
2022-12-18T13:36:58.225Z,-4.60
2022-12-18T13:39:34.779Z,-4.61
2022-12-18T13:42:08.430Z,-4.75
2022-12-18T13:44:40.682Z,-4.63
2022-12-18T13:47:25.751Z,-4.59
2022-12-18T13:49:52.166Z,-4.57
2022-12-18T13:52:22.478Z,-4.58
2022-12-18T13:54:56.457Z,-4.58
2022-12-18T13:57:33.874Z,-4.60
2022-12-18T14:00:17.719Z,-4.62
2022-12-18T14:02:46.529Z,-4.66
2022-12-18T14:05:35.268Z,-4.78
2022-12-18T14:08:13.642Z,-4.78
2022-12-18T14:10:48.568Z,-4.69
2022-12-18T14:13:30.324Z,-4.77
2022-12-18T14:15:57.763Z,-4.84
2022-12-18T14:18:31.554Z,-4.82
2022-12-18T14:21:00.583Z,-4.84
2022-12-18T14:23:39.504Z,-4.77
2022-12-18T14:26:28.153Z,-4.83
2022-12-18T14:28:56.360Z,-4.75
2022-12-18T14:31:26.332Z,-4.80
2022-12-18T14:33:54.041Z,-4.95
2022-12-18T14:36:25.354Z,-4.94
2022-12-18T14:38:54.791Z,-4.93
2022-12-18T14:41:22.400Z,-4.93
2022-12-18T14:43:51.618Z,-4.92
2022-12-18T14:46:35.415Z,-4.96
2022-12-18T14:49:23.053Z,-4.96
2022-12-18T14:51:51.813Z,-4.97
2022-12-18T14:54:20.755Z,-5.06
2022-12-18T14:56:50.187Z,-5.14
2022-12-18T14:59:24.196Z,-5.11
2022-12-18T15:02:01.156Z,-5.20
2022-12-18T15:04:31.956Z,-5.18
2022-12-18T15:07:20.695Z,-5.19
2022-12-18T15:10:17.098Z,-5.22
2022-12-18T15:12:49.519Z,-5.25
2022-12-18T15:15:34.713Z,-5.24
2022-12-18T15:18:03.057Z,-5.21
2022-12-18T15:20:33.547Z,-5.31
2022-12-18T15:23:00.121Z,-5.27
2022-12-18T15:25:33.328Z,-5.25
2022-12-18T15:27:59.783Z,-5.30
2022-12-18T15:30:26.884Z,-5.31
2022-12-18T15:33:13.688Z,-5.39
2022-12-18T15:35:45.244Z,-5.29
2022-12-18T15:38:13.323Z,-5.37
2022-12-18T15:40:39.818Z,-5.36
2022-12-18T15:43:24.929Z,-5.41
2022-12-18T15:45:51.396Z,-5.38
2022-12-18T15:48:24.293Z,-5.39
2022-12-18T15:50:53.430Z,-5.46
2022-12-18T15:53:20.109Z,-5.36
2022-12-18T15:56:05.062Z,-5.50
2022-12-18T15:58:31.495Z,-5.40
2022-12-18T16:01:00.023Z,-5.44
2022-12-18T16:03:26.525Z,-5.37
2022-12-18T16:05:53.233Z,-5.42
2022-12-18T16:08:21.021Z,-5.49
2022-12-18T16:10:47.607Z,-5.41
2022-12-18T16:13:20.101Z,-5.46
2022-12-18T16:15:46.672Z,-5.41
2022-12-18T16:18:13.341Z,-5.46
2022-12-18T16:20:40.462Z,-5.41
2022-12-18T16:23:07.374Z,-5.51
2022-12-18T16:25:34.264Z,-5.40
2022-12-18T16:28:00.678Z,-5.40
2022-12-18T16:30:33.098Z,-5.40
2022-12-18T16:33:05.730Z,-5.43
2022-12-18T16:35:34.401Z,-5.40
2022-12-18T16:38:00.837Z,-5.44
2022-12-18T16:40:27.330Z,-5.43
2022-12-18T16:42:54.084Z,-5.41
2022-12-18T16:45:20.711Z,-5.41
2022-12-18T16:47:47.307Z,-5.42
2022-12-18T16:50:13.866Z,-5.42
2022-12-18T16:52:40.703Z,-5.48
2022-12-18T16:55:07.894Z,-5.56
2022-12-18T16:57:34.407Z,-5.48
2022-12-18T17:00:05.259Z,-5.48
2022-12-18T17:02:32.947Z,-5.49
2022-12-18T17:04:59.677Z,-5.49
2022-12-18T17:07:26.952Z,-5.49
2022-12-18T17:09:54.315Z,-5.56
2022-12-18T17:12:21.620Z,-5.55
2022-12-18T17:14:48.448Z,-5.58
2022-12-18T17:17:23.747Z,-5.55
2022-12-18T17:19:52.269Z,-5.54
2022-12-18T17:22:19.594Z,-5.61
2022-12-18T17:24:47.156Z,-5.65
2022-12-18T17:27:13.994Z,-5.58
2022-12-18T17:29:46.891Z,-5.54
2022-12-18T17:32:14.800Z,-5.52
2022-12-18T17:34:41.372Z,-5.51
2022-12-18T17:37:08.480Z,-5.51
2022-12-18T17:39:34.980Z,-5.46
2022-12-18T17:42:01.478Z,-5.56
2022-12-18T17:44:28.023Z,-5.59
2022-12-18T17:46:54.678Z,-5.56
2022-12-18T17:49:21.665Z,-5.58
2022-12-18T17:51:48.754Z,-5.55
2022-12-18T17:54:15.233Z,-5.52
2022-12-18T17:56:41.737Z,-5.52
2022-12-18T17:59:08.379Z,-5.56
2022-12-18T18:01:38.506Z,-5.57
2022-12-18T18:04:07.750Z,-5.50
2022-12-18T18:06:34.446Z,-5.54
2022-12-18T18:09:03.932Z,-5.55
2022-12-18T18:11:49.039Z,-5.61
2022-12-18T18:14:20.784Z,-5.64
2022-12-18T18:16:49.654Z,-5.60
2022-12-18T18:19:21.770Z,-5.50
2022-12-18T18:21:50.126Z,-5.48
2022-12-18T18:24:20.395Z,-5.43
2022-12-18T18:26:47.133Z,-5.37
2022-12-18T18:29:23.676Z,-5.35
2022-12-18T18:31:52.595Z,-5.35
2022-12-18T18:34:22.731Z,-5.42
2022-12-18T18:36:49.395Z,-5.34
2022-12-18T18:39:16.257Z,-5.33
2022-12-18T18:41:48.014Z,-5.33
2022-12-18T18:44:18.780Z,-5.30
2022-12-18T18:46:45.428Z,-5.28
2022-12-18T18:49:13.730Z,-5.31
2022-12-18T18:51:41.145Z,-5.34
2022-12-18T18:54:08.049Z,-5.33
2022-12-18T18:57:11.676Z,-5.30
2022-12-18T18:59:22.448Z,-5.24
2022-12-18T19:01:56.934Z,-5.23
2022-12-18T19:04:23.586Z,-5.17
2022-12-18T19:06:50.096Z,-5.16
2022-12-18T19:09:17.218Z,-5.19
2022-12-18T19:12:02.433Z,-5.12
2022-12-18T19:14:29.415Z,-5.11
2022-12-18T19:16:55.927Z,-5.10
2022-12-18T19:19:23.486Z,-5.06
2022-12-18T19:21:50.255Z,-5.10
2022-12-18T19:24:16.713Z,-5.04
2022-12-18T19:26:43.632Z,-5.05
2022-12-18T19:29:12.055Z,-5.08
2022-12-18T19:31:40.200Z,-4.99
2022-12-18T19:34:07.848Z,-5.00
2022-12-18T19:36:37.654Z,-5.00
2022-12-18T19:39:09.643Z,-4.98
2022-12-18T19:41:36.066Z,-5.02
2022-12-18T19:44:07.958Z,-4.96
2022-12-18T19:46:35.685Z,-4.97
2022-12-18T19:49:02.657Z,-4.92
2022-12-18T19:51:30.372Z,-4.93
2022-12-18T19:53:59.930Z,-4.90
2022-12-18T19:56:34.250Z,-4.91
2022-12-18T19:59:01.770Z,-4.92
2022-12-18T20:01:30.281Z,-4.89
2022-12-18T20:03:58.311Z,-4.87
2022-12-18T20:06:32.834Z,-4.88
2022-12-18T20:09:05.381Z,-4.90
2022-12-18T20:11:33.824Z,-4.84
2022-12-18T20:14:06.525Z,-4.85
2022-12-18T20:16:33.068Z,-4.85
2022-12-18T20:19:00.207Z,-4.84
2022-12-18T20:21:26.772Z,-4.79
2022-12-18T20:23:54.781Z,-4.76
2022-12-18T20:26:22.436Z,-4.77
2022-12-18T20:28:48.867Z,-4.78
2022-12-18T20:31:15.294Z,-4.80
2022-12-18T20:33:42.610Z,-4.79
2022-12-18T20:36:15.341Z,-4.78
2022-12-18T20:38:43.264Z,-4.82
2022-12-18T20:41:16.335Z,-4.85
2022-12-18T20:43:43.313Z,-4.85
2022-12-18T20:46:12.045Z,-4.79
2022-12-18T20:48:38.631Z,-4.76
2022-12-18T20:51:08.135Z,-4.77
2022-12-18T20:53:35.801Z,-4.81
2022-12-18T20:56:08.318Z,-4.72
2022-12-18T20:58:35.560Z,-4.76
2022-12-18T21:01:07.830Z,-4.78
2022-12-18T21:03:36.187Z,-4.72
2022-12-18T21:06:03.463Z,-4.70
2022-12-18T21:08:30.256Z,-4.77
2022-12-18T21:10:56.721Z,-4.78
2022-12-18T21:13:23.660Z,-4.68
2022-12-18T21:15:53.398Z,-4.70
2022-12-18T21:18:20.349Z,-4.71
2022-12-18T21:20:46.911Z,-4.67
2022-12-18T21:23:16.602Z,-4.73
2022-12-18T21:25:44.111Z,-4.69
2022-12-18T21:28:12.079Z,-4.61
2022-12-18T21:30:38.802Z,-4.60
2022-12-18T21:33:05.269Z,-4.56
2022-12-18T21:35:32.131Z,-4.61
2022-12-18T21:37:58.728Z,-4.54
2022-12-18T21:40:25.330Z,-4.54
2022-12-18T21:43:10.217Z,-4.51
2022-12-18T21:45:39.742Z,-4.52
2022-12-18T21:48:06.291Z,-4.52
2022-12-18T21:50:32.713Z,-4.54
2022-12-18T21:52:59.192Z,-4.52
2022-12-18T21:55:25.887Z,-4.54
2022-12-18T21:57:54.484Z,-4.51
2022-12-18T22:00:20.965Z,-4.52
2022-12-18T22:03:01.146Z,-4.56
2022-12-18T22:05:35.156Z,-4.54
2022-12-18T22:08:01.747Z,-4.52
2022-12-18T22:10:28.572Z,-4.53
2022-12-18T22:12:55.208Z,-4.52
2022-12-18T22:15:22.060Z,-4.51
2022-12-18T22:17:50.238Z,-4.50
2022-12-18T22:20:17.629Z,-4.45
2022-12-18T22:22:46.321Z,-4.47
2022-12-18T22:25:12.871Z,-4.50
2022-12-18T22:27:39.330Z,-4.48
2022-12-18T22:30:06.396Z,-4.46
2022-12-18T22:32:35.009Z,-4.50
2022-12-18T22:35:08.390Z,-4.45
2022-12-18T22:37:39.359Z,-4.45
2022-12-18T22:40:07.442Z,-4.39
2022-12-18T22:42:34.946Z,-4.37
2022-12-18T22:45:01.473Z,-4.33
2022-12-18T22:47:30.160Z,-4.37
2022-12-18T22:49:57.728Z,-4.40
2022-12-18T22:52:24.799Z,-4.41
2022-12-18T22:54:51.396Z,-4.41
2022-12-18T22:57:20.108Z,-4.37
2022-12-18T22:59:46.591Z,-4.39
2022-12-18T23:02:13.167Z,-4.40
2022-12-18T23:04:39.768Z,-4.38
2022-12-18T23:07:06.779Z,-4.39
2022-12-18T23:09:33.385Z,-4.32
2022-12-18T23:12:00.227Z,-4.30
2022-12-18T23:14:27.519Z,-4.33
2022-12-18T23:16:53.976Z,-4.34
2022-12-18T23:19:21.406Z,-4.36
2022-12-18T23:21:50.857Z,-4.32
2022-12-18T23:24:17.460Z,-4.32
2022-12-18T23:26:43.899Z,-4.28
2022-12-18T23:29:10.406Z,-4.30
2022-12-18T23:31:38.627Z,-4.27
2022-12-18T23:34:06.792Z,-4.21
2022-12-18T23:36:40.283Z,-4.24
2022-12-18T23:39:15.415Z,-4.27
2022-12-18T23:41:56.026Z,-4.27
2022-12-18T23:44:22.565Z,-4.31
2022-12-18T23:46:49.117Z,-4.28
2022-12-18T23:49:15.655Z,-4.27
2022-12-18T23:51:42.116Z,-4.29
2022-12-18T23:54:09.893Z,-4.30
2022-12-18T23:56:36.386Z,-4.36
2022-12-18T23:59:02.912Z,-4.34
